Time;durP1;ratioP1;P1;durP2;ratioP2;P2;SDS_P1;SDS_P2;PMS_P1;PMS_P2;Temp;Humidity;BMP_temperature;BMP_pressure;BME280_temperature;BME280_humidity;BME280_pressure;Samples;Min_cycle;Max_cycle;Signal;HPM_P1;HPM_P2
2023/04/29 00:00:05;;;;;;;3.80;2.08;;;15.00;99.90;;;;;;4961692;28;20038;-80
2023/04/29 00:02:31;;;;;;;3.85;2.30;;;15.00;99.90;;;;;;4961332;28;20027;-81
2023/04/29 00:04:57;;;;;;;1.77;1.65;;;15.00;99.90;;;;;;4960769;28;20043;-80
2023/04/29 00:07:23;;;;;;;3.15;2.05;;;15.00;99.90;;;;;;4978324;28;20035;-81
2023/04/29 00:09:49;;;;;;;4.25;2.08;;;15.00;99.90;;;;;;4961124;28;20121;-79
2023/04/29 00:12:17;;;;;;;2.88;1.73;;;15.00;99.90;;;;;;4978416;28;20108;-79
2023/04/29 00:14:43;;;;;;;4.05;2.45;;;15.00;99.90;;;;;;4977714;28;20038;-79
2023/04/29 00:17:08;;;;;;;2.90;2.05;;;15.00;99.90;;;;;;4960958;28;20027;-80
2023/04/29 00:19:34;;;;;;;3.75;2.15;;;14.90;99.90;;;;;;4960668;28;20029;-78
2023/04/29 00:22:00;;;;;;;3.78;2.00;;;14.90;99.90;;;;;;4960921;28;20026;-79
2023/04/29 00:24:26;;;;;;;4.07;2.47;;;14.90;99.90;;;;;;4959999;28;20431;-79
2023/04/29 00:26:52;;;;;;;2.70;2.10;;;14.90;99.90;;;;;;4977833;28;20090;-79
2023/04/29 00:29:17;;;;;;;4.25;2.00;;;14.90;99.90;;;;;;4960451;28;20460;-79
2023/04/29 00:31:43;;;;;;;8.95;2.30;;;14.80;99.90;;;;;;4960024;28;20047;-79
2023/04/29 00:34:09;;;;;;;3.28;2.00;;;14.80;99.90;;;;;;4960372;28;20038;-78
2023/04/29 00:36:35;;;;;;;2.80;2.30;;;14.80;99.90;;;;;;4960058;28;20037;-80
2023/04/29 00:39:01;;;;;;;2.67;1.88;;;14.80;99.90;;;;;;4960816;28;20027;-80
2023/04/29 00:41:27;;;;;;;4.22;2.38;;;14.80;99.90;;;;;;4960001;28;20081;-80
2023/04/29 00:43:52;;;;;;;3.55;2.50;;;14.70;99.90;;;;;;4960481;28;20102;-80
2023/04/29 00:46:18;;;;;;;5.28;2.40;;;14.70;99.90;;;;;;4960112;28;20023;-78
2023/04/29 00:48:44;;;;;;;4.40;2.30;;;14.70;99.90;;;;;;4960110;28;20023;-79
2023/04/29 00:51:10;;;;;;;3.83;2.28;;;14.70;99.90;;;;;;4960568;28;20113;-79
2023/04/29 00:53:37;;;;;;;2.33;2.10;;;14.70;99.90;;;;;;4976635;28;20031;-79
2023/04/29 00:56:03;;;;;;;4.65;2.47;;;14.70;99.90;;;;;;4959940;28;20035;-80
2023/04/29 00:58:32;;;;;;;2.38;2.00;;;14.60;99.90;;;;;;4959432;28;20054;-79
2023/04/29 01:01:00;;;;;;;2.78;2.28;;;14.60;99.90;;;;;;4960024;28;20042;-80
2023/04/29 01:03:27;;;;;;;3.85;2.28;;;14.60;99.90;;;;;;4960082;28;20035;-84
2023/04/29 01:06:10;;;;;;;3.65;2.30;;;14.60;99.90;;;;;;4977375;28;20464;-80
2023/04/29 01:09:07;;;;;;;7.15;2.38;;;14.60;99.90;;;;;;4976866;28;20065;-80
2023/04/29 01:11:48;;;;;;;5.50;2.60;;;14.60;99.90;;;;;;4951537;28;20507;-80
2023/04/29 01:14:14;;;;;;;2.72;2.08;;;14.60;99.90;;;;;;4960268;28;20030;-80
2023/04/29 01:16:46;;;;;;;3.10;2.05;;;14.60;99.90;;;;;;4959823;28;20046;-80
2023/04/29 01:19:22;;;;;;;4.13;2.47;;;14.60;99.90;;;;;;4960650;28;20026;-80
2023/04/29 01:21:48;;;;;;;4.25;2.60;;;14.60;99.90;;;;;;4959740;28;20034;-80
2023/04/29 01:24:14;;;;;;;4.20;2.35;;;14.50;99.90;;;;;;4960153;28;20547;-80
2023/04/29 01:26:49;;;;;;;2.85;2.15;;;14.50;99.90;;;;;;4976638;28;20086;-81
2023/04/29 01:29:23;;;;;;;2.25;1.83;;;14.50;99.90;;;;;;4960044;28;20030;-80
2023/04/29 01:32:00;;;;;;;2.70;2.17;;;14.50;99.90;;;;;;4959263;28;20089;-80
2023/04/29 01:34:38;;;;;;;3.55;2.50;;;14.50;99.90;;;;;;4976420;28;20094;-84
2023/04/29 01:37:09;;;;;;;3.75;1.80;;;14.50;99.90;;;;;;4959731;28;20484;-80
2023/04/29 01:39:48;;;;;;;2.78;2.50;;;14.40;99.90;;;;;;4959288;28;20487;-81
2023/04/29 01:42:37;;;;;;;2.53;2.33;;;14.40;99.90;;;;;;4960048;28;20456;-80
2023/04/29 01:45:07;;;;;;;3.47;1.88;;;14.40;99.90;;;;;;4959844;28;20029;-80
2023/04/29 01:47:32;;;;;;;2.85;2.03;;;14.40;99.90;;;;;;4976511;28;20432;-81
2023/04/29 01:49:58;;;;;;;4.85;1.95;;;14.40;99.90;;;;;;4959508;28;20031;-79
2023/04/29 01:52:24;;;;;;;4.07;1.85;;;14.40;99.90;;;;;;4959383;28;20044;-80
2023/04/29 01:54:49;;;;;;;2.60;1.92;;;14.40;99.90;;;;;;4958376;28;20066;-80
2023/04/29 01:57:15;;;;;;;2.67;1.95;;;14.40;99.90;;;;;;4958707;28;20023;-79
2023/04/29 01:59:41;;;;;;;2.47;2.00;;;14.30;99.90;;;;;;4958182;28;20062;-79
2023/04/29 02:02:07;;;;;;;4.63;2.28;;;14.30;99.90;;;;;;4975957;28;20131;-80
2023/04/29 02:04:33;;;;;;;4.03;2.60;;;14.30;99.90;;;;;;4957981;28;20027;-80
2023/04/29 02:06:59;;;;;;;3.83;2.25;;;14.30;99.90;;;;;;4975939;28;20038;-80
2023/04/29 02:09:24;;;;;;;2.25;2.05;;;14.20;99.90;;;;;;4958681;28;20464;-79
2023/04/29 02:11:50;;;;;;;3.05;2.28;;;14.20;99.90;;;;;;4958467;28;20022;-80
2023/04/29 02:14:15;;;;;;;2.92;2.15;;;14.20;99.90;;;;;;4975180;28;20105;-80
2023/04/29 02:16:44;;;;;;;3.53;2.47;;;14.20;99.90;;;;;;4958636;28;20035;-80
2023/04/29 02:19:10;;;;;;;2.50;2.30;;;14.20;99.90;;;;;;4959018;28;20034;-80
2023/04/29 02:21:36;;;;;;;3.92;2.63;;;14.10;99.90;;;;;;4975846;28;20027;-80
2023/04/29 02:24:01;;;;;;;4.43;2.70;;;14.10;99.90;;;;;;4959003;28;20069;-80
2023/04/29 02:26:27;;;;;;;3.80;2.30;;;14.00;99.90;;;;;;4958840;28;20059;-80
2023/04/29 02:28:52;;;;;;;4.68;2.70;;;14.00;99.90;;;;;;4957535;28;20527;-81
2023/04/29 02:31:18;;;;;;;3.85;2.65;;;14.00;99.90;;;;;;4958496;28;20047;-80
2023/04/29 02:33:44;;;;;;;3.45;2.53;;;14.00;99.90;;;;;;4957773;28;20468;-81
2023/04/29 02:36:09;;;;;;;3.88;2.80;;;14.00;99.90;;;;;;4975651;28;20495;-81
2023/04/29 02:38:35;;;;;;;3.65;2.80;;;14.00;99.90;;;;;;4974831;28;20085;-81
2023/04/29 02:41:01;;;;;;;6.57;3.80;;;14.00;99.90;;;;;;4958400;28;20035;-81
2023/04/29 02:43:29;;;;;;;5.28;2.53;;;14.00;99.90;;;;;;4958416;28;20116;-80
2023/04/29 02:45:55;;;;;;;2.88;2.42;;;13.90;99.90;;;;;;4975898;28;20033;-81
2023/04/29 02:48:21;;;;;;;3.90;2.30;;;13.90;99.90;;;;;;4958371;28;20023;-81
2023/04/29 02:50:46;;;;;;;2.30;2.10;;;14.00;99.90;;;;;;4975393;28;20026;-81
2023/04/29 02:53:12;;;;;;;3.05;2.30;;;13.90;99.90;;;;;;4958299;28;20062;-80
2023/04/29 02:55:37;;;;;;;4.03;2.30;;;14.00;99.90;;;;;;4957587;28;20038;-80
2023/04/29 02:58:03;;;;;;;2.75;2.00;;;13.90;99.90;;;;;;4958207;28;20022;-81
2023/04/29 03:00:28;;;;;;;3.13;1.73;;;13.90;99.90;;;;;;4958648;28;20460;-81
2023/04/29 03:02:55;;;;;;;4.28;1.90;;;13.90;99.90;;;;;;4974886;28;20026;-81
2023/04/29 03:05:20;;;;;;;3.30;1.90;;;13.90;99.90;;;;;;4958297;28;20031;-80
2023/04/29 03:07:46;;;;;;;2.85;1.70;;;13.90;99.90;;;;;;4957525;28;20029;-80
2023/04/29 03:10:11;;;;;;;3.47;1.77;;;13.90;99.90;;;;;;4958206;28;20470;-81
2023/04/29 03:12:38;;;;;;;2.53;1.60;;;13.90;99.90;;;;;;4974879;28;20038;-81
2023/04/29 03:15:09;;;;;;;2.55;1.35;;;13.90;99.90;;;;;;4958444;28;20518;-82
2023/04/29 03:17:35;;;;;;;2.28;1.60;;;13.80;99.90;;;;;;4957887;28;20383;-82
2023/04/29 03:20:01;;;;;;;2.05;1.67;;;13.80;99.90;;;;;;4975361;28;20031;-81
2023/04/29 03:22:29;;;;;;;5.70;1.90;;;13.80;99.90;;;;;;4958020;28;20035;-81
2023/04/29 03:24:55;;;;;;;3.88;1.60;;;13.80;99.90;;;;;;4957612;28;20027;-82
2023/04/29 03:27:21;;;;;;;4.38;1.90;;;13.80;99.90;;;;;;4975079;28;20034;-81
2023/04/29 03:29:46;;;;;;;3.35;2.10;;;13.80;99.90;;;;;;4956987;28;20038;-81
2023/04/29 03:32:12;;;;;;;3.10;2.00;;;13.80;99.90;;;;;;4957443;28;20058;-81
2023/04/29 03:34:37;;;;;;;4.03;1.80;;;13.70;99.90;;;;;;4956514;28;20023;-81
2023/04/29 03:37:03;;;;;;;2.47;1.70;;;13.70;99.90;;;;;;4957308;28;20043;-80
2023/04/29 03:39:31;;;;;;;5.75;1.88;;;13.70;99.90;;;;;;4958009;28;20109;-80
2023/04/29 03:41:58;;;;;;;1.65;1.40;;;13.80;99.90;;;;;;4957315;28;20038;-80
2023/04/29 03:44:24;;;;;;;1.90;1.45;;;13.80;99.90;;;;;;4957742;28;20085;-79
2023/04/29 03:46:50;;;;;;;3.17;1.60;;;13.80;99.90;;;;;;4957449;28;20027;-79
2023/04/29 03:49:16;;;;;;;2.63;1.70;;;13.80;99.90;;;;;;4957877;28;20027;-79
2023/04/29 03:51:44;;;;;;;2.42;1.95;;;13.70;99.90;;;;;;4957255;28;20387;-80
2023/04/29 03:54:10;;;;;;;2.55;1.80;;;13.70;99.90;;;;;;4957816;28;20031;-78
2023/04/29 03:56:35;;;;;;;3.13;1.90;;;13.60;99.90;;;;;;4957519;28;20049;-83
2023/04/29 03:59:01;;;;;;;2.25;1.80;;;13.50;99.90;;;;;;4975184;28;20531;-79
2023/04/29 04:01:27;;;;;;;2.38;1.83;;;13.50;99.90;;;;;;4958244;28;20392;-78
2023/04/29 04:03:52;;;;;;;3.67;1.92;;;13.50;99.90;;;;;;4957385;28;20085;-79
2023/04/29 04:06:18;;;;;;;15.43;8.95;;;13.50;99.90;;;;;;4974834;28;20093;-79
2023/04/29 04:08:43;;;;;;;31.58;16.58;;;13.40;99.90;;;;;;4974904;28;20038;-79
2023/04/29 04:11:09;;;;;;;7.05;4.47;;;13.40;99.90;;;;;;4957856;28;20031;-78
2023/04/29 04:13:35;;;;;;;3.15;2.20;;;13.30;99.90;;;;;;4958262;28;20538;-81
2023/04/29 04:16:01;;;;;;;4.13;1.80;;;13.40;99.90;;;;;;4974490;28;20035;-79
2023/04/29 04:18:27;;;;;;;5.13;2.10;;;13.30;99.90;;;;;;4974490;28;20109;-80
2023/04/29 04:20:52;;;;;;;3.83;1.65;;;13.30;99.90;;;;;;4957287;28;20121;-79
2023/04/29 04:23:18;;;;;;;5.95;1.70;;;13.20;99.90;;;;;;4957646;28;20031;-80
2023/04/29 04:25:45;;;;;;;2.28;1.45;;;13.20;99.90;;;;;;4957328;28;20431;-80
2023/04/29 04:28:11;;;;;;;2.42;1.52;;;13.30;99.90;;;;;;4957979;28;20066;-80
2023/04/29 04:30:36;;;;;;;2.58;1.55;;;13.30;99.90;;;;;;4957350;28;20055;-81
2023/04/29 04:33:02;;;;;;;3.55;1.40;;;13.30;99.90;;;;;;4957537;28;20078;-79
2023/04/29 04:35:28;;;;;;;2.08;1.52;;;13.30;99.90;;;;;;4957770;28;20057;-78
2023/04/29 04:37:54;;;;;;;2.10;1.13;;;13.20;99.90;;;;;;4960160;28;20444;-78
2023/04/29 04:40:19;;;;;;;3.65;1.00;;;13.20;99.90;;;;;;4960949;28;20026;-78
2023/04/29 04:42:45;;;;;;;2.00;1.50;;;13.20;99.90;;;;;;4977723;28;20031;-80
2023/04/29 04:45:11;;;;;;;1.30;1.13;;;13.20;99.90;;;;;;4961145;28;20472;-80
2023/04/29 04:47:36;;;;;;;2.90;1.00;;;13.10;99.90;;;;;;4960713;28;20471;-82
2023/04/29 04:50:03;;;;;;;1.88;1.27;;;13.10;99.90;;;;;;4960989;28;20448;-81
2023/04/29 04:52:28;;;;;;;3.70;1.73;;;13.10;99.90;;;;;;4960890;28;20027;-80
2023/04/29 04:54:54;;;;;;;2.72;1.30;;;13.10;99.90;;;;;;4977262;28;20038;-80
2023/04/29 04:57:20;;;;;;;2.63;1.27;;;13.10;99.90;;;;;;4961036;28;20037;-80
2023/04/29 04:59:45;;;;;;;1.85;0.90;;;13.10;99.90;;;;;;4960180;28;20034;-81
2023/04/29 05:02:11;;;;;;;4.15;1.40;;;13.10;99.90;;;;;;4960688;28;20026;-80
2023/04/29 05:04:37;;;;;;;2.33;1.00;;;13.00;99.90;;;;;;4960762;28;20046;-81
2023/04/29 05:07:02;;;;;;;1.77;1.00;;;13.10;99.90;;;;;;4977677;28;20030;-80
2023/04/29 05:09:28;;;;;;;1.83;1.38;;;13.10;99.90;;;;;;4960923;28;20023;-80
2023/04/29 05:11:54;;;;;;;1.50;1.00;;;13.10;99.90;;;;;;4977197;28;20027;-80
2023/04/29 05:14:20;;;;;;;2.15;1.10;;;13.00;99.90;;;;;;4959882;28;20034;-78
2023/04/29 05:16:46;;;;;;;2.85;1.30;;;13.00;99.90;;;;;;4977174;28;20026;-79
2023/04/29 05:19:11;;;;;;;1.30;1.20;;;13.10;99.90;;;;;;4960125;28;20034;-78
2023/04/29 05:21:37;;;;;;;2.88;1.33;;;13.20;99.90;;;;;;4977258;28;20432;-79
2023/04/29 05:24:03;;;;;;;2.15;1.52;;;13.30;99.90;;;;;;4959367;28;20464;-79
2023/04/29 05:26:29;;;;;;;1.55;1.38;;;13.30;99.90;;;;;;4977565;28;20023;-80
2023/04/29 05:28:54;;;;;;;2.88;1.40;;;13.30;99.90;;;;;;4976405;28;20034;-80
2023/04/29 05:31:20;;;;;;;2.10;1.55;;;13.30;99.90;;;;;;4959492;28;20050;-80
2023/04/29 05:33:46;;;;;;;1.95;1.35;;;13.30;99.90;;;;;;4976172;28;20039;-80
2023/04/29 05:36:11;;;;;;;1.92;1.27;;;13.30;99.90;;;;;;4959608;28;20113;-79
2023/04/29 05:38:37;;;;;;;3.92;1.20;;;13.30;99.90;;;;;;4976604;28;20510;-82
2023/04/29 05:41:02;;;;;;;3.72;1.15;;;13.30;99.90;;;;;;4958947;28;20033;-79
2023/04/29 05:43:28;;;;;;;1.42;1.10;;;13.20;99.90;;;;;;4959401;28;20065;-81
2023/04/29 05:45:54;;;;;;;2.50;1.33;;;13.20;99.90;;;;;;4975881;28;20023;-81
2023/04/29 05:48:20;;;;;;;2.45;1.40;;;13.20;99.90;;;;;;4975311;28;20027;-80
2023/04/29 05:50:47;;;;;;;2.55;1.20;;;13.20;99.90;;;;;;4976073;28;20042;-81
2023/04/29 05:53:13;;;;;;;1.63;1.33;;;13.20;99.90;;;;;;4959471;28;20081;-79
2023/04/29 05:55:39;;;;;;;3.20;1.50;;;13.30;99.90;;;;;;4959491;28;20117;-81
2023/04/29 05:58:05;;;;;;;3.00;1.50;;;13.20;99.90;;;;;;4972213;28;20023;-78
2023/04/29 06:00:30;;;;;;;2.33;1.42;;;13.20;99.90;;;;;;4976483;28;20057;-80
2023/04/29 06:02:56;;;;;;;2.30;1.40;;;13.30;99.90;;;;;;4975982;28;20518;-81
2023/04/29 06:05:22;;;;;;;3.38;1.40;;;13.30;99.90;;;;;;4975757;28;20062;-80
2023/04/29 06:07:48;;;;;;;1.88;1.60;;;13.40;99.90;;;;;;4957913;28;20027;-79
2023/04/29 06:10:14;;;;;;;2.67;1.35;;;13.30;99.90;;;;;;4958930;28;20030;-80
2023/04/29 06:12:39;;;;;;;1.85;1.63;;;13.30;99.90;;;;;;4958215;28;20029;-79
2023/04/29 06:15:06;;;;;;;4.20;1.60;;;13.40;99.90;;;;;;4957778;28;20035;-82
2023/04/29 06:17:32;;;;;;;1.50;1.35;;;13.40;99.90;;;;;;4958400;28;20034;-81
2023/04/29 06:19:57;;;;;;;1.92;1.73;;;13.40;99.90;;;;;;4957988;28;20086;-82
2023/04/29 06:22:23;;;;;;;2.88;1.98;;;13.50;99.90;;;;;;4975819;28;20038;-80
2023/04/29 06:24:48;;;;;;;4.10;1.70;;;13.50;99.90;;;;;;4957888;28;20125;-81
2023/04/29 06:27:15;;;;;;;3.13;1.90;;;13.60;99.90;;;;;;4958409;28;20030;-81
2023/04/29 06:29:41;;;;;;;3.97;1.70;;;13.70;99.90;;;;;;4958928;28;20113;-82
2023/04/29 06:32:06;;;;;;;1.90;1.38;;;13.70;99.90;;;;;;4957792;28;20083;-81
2023/04/29 06:34:32;;;;;;;2.25;1.85;;;13.80;99.90;;;;;;4974606;28;20088;-81
2023/04/29 06:36:58;;;;;;;1.80;1.50;;;13.80;99.90;;;;;;4957282;28;20027;-82
2023/04/29 06:39:23;;;;;;;2.20;1.42;;;13.90;99.90;;;;;;4975639;28;20162;-81
2023/04/29 06:41:49;;;;;;;2.33;1.63;;;13.90;99.90;;;;;;4975032;28;20027;-81
2023/04/29 06:44:16;;;;;;;2.15;1.60;;;13.90;99.90;;;;;;4958077;28;20027;-82
2023/04/29 06:46:42;;;;;;;3.55;1.58;;;14.00;99.90;;;;;;4957910;28;20034;-83
2023/04/29 06:49:08;;;;;;;3.35;1.83;;;14.00;99.90;;;;;;4975039;28;20065;-79
2023/04/29 06:51:35;;;;;;;2.05;1.70;;;14.00;99.90;;;;;;4953955;28;20536;-76
2023/04/29 06:54:01;;;;;;;3.05;1.73;;;14.00;99.90;;;;;;4956944;28;20035;-75
2023/04/29 06:56:27;;;;;;;4.40;2.00;;;14.00;99.90;;;;;;4973571;28;20089;-76
2023/04/29 06:58:52;;;;;;;3.35;1.73;;;14.00;99.90;;;;;;4955051;28;20023;-75
2023/04/29 07:01:18;;;;;;;7.47;2.10;;;13.90;99.90;;;;;;4956151;28;20518;-76
2023/04/29 07:03:44;;;;;;;3.78;2.00;;;13.90;99.90;;;;;;4972504;28;20030;-78
2023/04/29 07:06:09;;;;;;;5.68;2.00;;;13.80;99.90;;;;;;4974404;28;20031;-79
2023/04/29 07:08:35;;;;;;;2.85;1.88;;;13.80;99.90;;;;;;4958060;28;20035;-79
2023/04/29 07:11:00;;;;;;;3.28;1.75;;;13.90;99.90;;;;;;4974282;28;20062;-79
2023/04/29 07:13:26;;;;;;;4.90;1.95;;;13.90;99.90;;;;;;4978793;28;20064;-77
2023/04/29 07:15:52;;;;;;;3.25;1.95;;;13.90;99.90;;;;;;4957297;28;20369;-77
2023/04/29 07:18:17;;;;;;;3.10;1.95;;;14.00;99.90;;;;;;4956889;28;20372;-76
2023/04/29 07:20:43;;;;;;;3.97;2.20;;;14.00;99.90;;;;;;4973754;28;20022;-77
2023/04/29 07:23:09;;;;;;;3.97;2.00;;;14.10;99.90;;;;;;4973562;28;20027;-76
2023/04/29 07:25:34;;;;;;;3.00;2.03;;;14.20;99.90;;;;;;4956095;28;20495;-77
2023/04/29 07:28:00;;;;;;;4.75;2.72;;;14.30;99.90;;;;;;4972922;28;20031;-76
2023/04/29 07:30:25;;;;;;;2.67;2.03;;;14.40;99.90;;;;;;4973365;28;20050;-75
2023/04/29 07:32:51;;;;;;;3.30;2.33;;;14.50;99.90;;;;;;4955239;28;20103;-75
2023/04/29 07:35:17;;;;;;;8.13;2.35;;;14.60;99.90;;;;;;4973321;28;20043;-77
2023/04/29 07:37:44;;;;;;;3.38;2.20;;;14.60;99.90;;;;;;4956123;28;20058;-77
2023/04/29 07:40:10;;;;;;;4.55;2.25;;;14.70;99.90;;;;;;4956293;28;20031;-76
2023/04/29 07:42:36;;;;;;;4.35;1.83;;;14.60;99.90;;;;;;4956431;28;20026;-76
2023/04/29 07:45:01;;;;;;;3.13;1.80;;;14.60;99.90;;;;;;4972980;28;20113;-76
2023/04/29 07:47:27;;;;;;;4.03;2.63;;;14.70;99.90;;;;;;4955764;28;20061;-76
2023/04/29 07:49:53;;;;;;;2.05;1.88;;;14.70;99.90;;;;;;4955090;28;20038;-74
2023/04/29 07:52:18;;;;;;;3.20;2.10;;;14.70;99.90;;;;;;4955714;28;20091;-76
2023/04/29 07:54:44;;;;;;;3.13;2.22;;;14.70;99.90;;;;;;4955338;28;20039;-77
2023/04/29 07:57:09;;;;;;;5.05;3.30;;;14.90;99.90;;;;;;4972817;28;20073;-76
2023/04/29 07:59:35;;;;;;;4.40;2.95;;;14.90;99.90;;;;;;4955828;28;20395;-76
2023/04/29 08:02:01;;;;;;;4.28;2.55;;;15.00;99.90;;;;;;4972596;28;20082;-75
2023/04/29 08:04:26;;;;;;;3.58;2.35;;;14.90;99.90;;;;;;4955234;28;20035;-78
2023/04/29 08:06:52;;;;;;;8.52;2.72;;;14.90;99.90;;;;;;4955558;28;20118;-78
2023/04/29 08:09:17;;;;;;;3.95;2.42;;;14.80;99.90;;;;;;4973386;28;20035;-77
2023/04/29 08:11:44;;;;;;;3.72;2.13;;;14.80;99.90;;;;;;4974379;28;20027;-77
2023/04/29 08:14:10;;;;;;;2.92;2.30;;;14.90;99.90;;;;;;4959104;28;20046;-76
2023/04/29 08:16:35;;;;;;;3.08;2.00;;;15.10;99.90;;;;;;4959029;28;20027;-77
2023/04/29 08:19:01;;;;;;;4.47;2.53;;;15.10;99.90;;;;;;4975906;28;20390;-77
2023/04/29 08:21:27;;;;;;;3.05;2.25;;;15.20;99.90;;;;;;4959202;28;20027;-76
2023/04/29 08:23:54;;;;;;;3.10;2.22;;;15.30;99.90;;;;;;4958098;28;20038;-76
2023/04/29 08:26:21;;;;;;;2.83;2.08;;;15.30;99.90;;;;;;4975984;28;20469;-76
2023/04/29 08:28:47;;;;;;;4.47;2.25;;;15.40;99.90;;;;;;4975720;28;20023;-76
2023/04/29 08:31:17;;;;;;;4.88;1.90;;;15.30;99.90;;;;;;4958676;28;20384;-77
2023/04/29 08:33:42;;;;;;;2.75;1.80;;;15.40;99.90;;;;;;4957920;28;20040;-76
2023/04/29 08:36:08;;;;;;;3.40;2.13;;;15.50;99.90;;;;;;4958298;28;20035;-76
2023/04/29 08:38:34;;;;;;;2.47;1.90;;;15.50;99.90;;;;;;4975536;28;20122;-77
2023/04/29 08:41:00;;;;;;;3.72;2.45;;;15.50;99.90;;;;;;4958383;28;20049;-76
2023/04/29 08:43:26;;;;;;;2.42;2.00;;;15.60;99.90;;;;;;4976052;28;20027;-76
2023/04/29 08:45:52;;;;;;;4.40;2.10;;;15.60;99.90;;;;;;4957925;28;20465;-77
2023/04/29 08:48:18;;;;;;;3.13;2.15;;;15.70;99.90;;;;;;4957597;28;20033;-79
2023/04/29 08:50:44;;;;;;;3.00;2.20;;;15.80;99.90;;;;;;4957773;28;20038;-77
2023/04/29 08:53:12;;;;;;;3.25;2.15;;;15.80;99.90;;;;;;4958844;28;20081;-78
2023/04/29 08:55:46;;;;;;;3.95;2.25;;;15.90;99.90;;;;;;4975650;28;20035;-76
2023/04/29 08:58:14;;;;;;;2.70;2.05;;;15.90;99.90;;;;;;4957670;28;20030;-77
2023/04/29 09:00:42;;;;;;;2.70;1.88;;;15.80;99.90;;;;;;4976170;28;20030;-79
2023/04/29 09:03:17;;;;;;;3.63;1.95;;;15.80;99.90;;;;;;4958975;28;20030;-79
2023/04/29 09:05:47;;;;;;;2.15;1.95;;;15.90;99.90;;;;;;4958378;28;20155;-77
2023/04/29 09:08:14;;;;;;;3.15;1.70;;;15.90;99.90;;;;;;4962265;28;20027;-77
2023/04/29 09:10:41;;;;;;;2.97;1.90;;;16.00;99.90;;;;;;4958457;28;20035;-78
2023/04/29 09:13:07;;;;;;;2.67;1.80;;;16.00;99.90;;;;;;4958645;28;20101;-79
2023/04/29 09:15:39;;;;;;;3.08;1.92;;;16.00;99.90;;;;;;4975805;28;20464;-78
2023/04/29 09:18:04;;;;;;;2.88;2.22;;;16.10;99.90;;;;;;4951299;28;20416;-77
2023/04/29 09:20:30;;;;;;;4.78;2.10;;;16.20;99.90;;;;;;4948330;28;20036;-78
2023/04/29 09:23:02;;;;;;;3.33;2.30;;;16.20;99.90;;;;;;4957248;28;20030;-76
2023/04/29 09:25:27;;;;;;;;;;;16.10;99.90;;;;;;4958403;28;20058;-77
2023/04/29 09:27:54;;;;;;;3.08;2.00;;;16.20;99.90;;;;;;4956422;28;20000;-76
2023/04/29 09:30:21;;;;;;;4.40;2.55;;;16.20;99.90;;;;;;4957345;28;20043;-76
2023/04/29 09:33:07;;;;;;;7.18;2.97;;;16.20;99.90;;;;;;4956611;28;20038;-77
2023/04/29 09:35:33;;;;;;;3.30;2.50;;;16.20;99.90;;;;;;4957307;28;20043;-77
2023/04/29 09:38:11;;;;;;;3.90;2.30;;;16.20;99.90;;;;;;4973310;28;20089;-76
2023/04/29 09:40:38;;;;;;;3.25;2.33;;;16.20;99.90;;;;;;4957059;28;20027;-76
2023/04/29 09:43:17;;;;;;;4.30;2.38;;;16.10;99.90;;;;;;4956331;28;20042;-78
2023/04/29 09:45:46;;;;;;;3.63;2.40;;;16.10;99.90;;;;;;4956497;28;20510;-77
2023/04/29 09:48:13;;;;;;;4.88;1.77;;;16.10;99.90;;;;;;4957531;28;20018;-75
2023/04/29 09:50:40;;;;;;;2.75;1.90;;;16.10;99.90;;;;;;4954199;28;20035;-77
2023/04/29 09:53:08;;;;;;;2.85;1.98;;;16.10;99.90;;;;;;4956975;28;20486;-77
2023/04/29 09:55:56;;;;;;;4.97;2.50;;;16.20;99.90;;;;;;4974411;28;20113;-78
2023/04/29 09:58:32;;;;;;;4.50;2.30;;;16.20;99.90;;;;;;4952753;28;20030;-77
2023/04/29 10:01:02;;;;;;;5.18;2.88;;;16.30;99.90;;;;;;4948194;28;20035;-80
2023/04/29 10:03:36;;;;;;;8.63;4.50;;;16.20;99.90;;;;;;4957836;28;20066;-79
2023/04/29 10:06:03;;;;;;;8.45;4.50;;;15.90;99.90;;;;;;4974190;28;20027;-77
2023/04/29 10:08:30;;;;;;;9.05;4.63;;;15.80;99.90;;;;;;4956938;28;20029;-76
2023/04/29 10:10:59;;;;;;;7.40;4.60;;;15.70;99.90;;;;;;4974159;28;20026;-77
2023/04/29 10:13:27;;;;;;;7.47;4.57;;;15.60;99.90;;;;;;4975024;28;20034;-79
2023/04/29 10:16:24;;;;;;;8.50;4.65;;;15.50;99.90;;;;;;4956751;28;20492;-79
2023/04/29 10:18:55;;;;;;;7.47;4.72;;;15.70;99.90;;;;;;4973101;28;20038;-77
2023/04/29 10:21:27;;;;;;;8.10;4.20;;;15.60;99.90;;;;;;4957368;28;20029;-77
2023/04/29 10:23:55;;;;;;;7.30;4.03;;;15.70;99.90;;;;;;4956591;28;20114;-78
2023/04/29 10:26:22;;;;;;;7.72;4.25;;;15.70;99.90;;;;;;4956717;28;20464;-77
2023/04/29 10:28:50;;;;;;;8.85;4.57;;;15.70;99.90;;;;;;4972931;28;20037;-76
2023/04/29 10:31:16;;;;;;;8.68;4.30;;;15.80;99.90;;;;;;4973773;28;20441;-76
2023/04/29 10:33:44;;;;;;;6.95;3.72;;;15.80;99.90;;;;;;4972182;28;20038;-77
2023/04/29 10:36:11;;;;;;;5.70;3.40;;;15.80;99.90;;;;;;4955897;28;20031;-76
2023/04/29 10:38:49;;;;;;;5.15;3.20;;;15.80;99.90;;;;;;4955133;28;20022;-77
2023/04/29 10:41:25;;;;;;;5.88;3.83;;;15.60;99.90;;;;;;4956927;28;20042;-77
2023/04/29 10:43:52;;;;;;;6.18;3.95;;;15.60;99.90;;;;;;4955269;28;20042;-78
2023/04/29 10:46:18;;;;;;;6.43;3.58;;;15.60;99.90;;;;;;4956261;28;20201;-78
2023/04/29 10:48:48;;;;;;;5.50;3.50;;;15.60;99.90;;;;;;4955699;28;20031;-77
2023/04/29 10:51:34;;;;;;;5.90;3.35;;;15.50;99.90;;;;;;4956264;28;20050;-77
2023/04/29 10:54:16;;;;;;;6.35;3.30;;;15.40;99.90;;;;;;4955369;28;20026;-76
2023/04/29 10:56:50;;;;;;;5.35;3.47;;;15.40;99.90;;;;;;4972541;28;20054;-79
2023/04/29 10:59:39;;;;;;;6.13;3.60;;;15.30;99.90;;;;;;4955736;28;20138;-76
2023/04/29 11:02:05;;;;;;;5.25;3.70;;;15.30;99.90;;;;;;4944310;28;20031;-77
2023/04/29 11:04:31;;;;;;;9.48;3.80;;;15.40;99.90;;;;;;4973294;28;20379;-78
2023/04/29 11:06:58;;;;;;;6.28;3.80;;;15.50;99.90;;;;;;4973328;28;20089;-77
2023/04/29 11:09:24;;;;;;;6.90;3.78;;;15.60;99.90;;;;;;4956672;28;20380;-77
2023/04/29 11:12:02;;;;;;;6.97;3.80;;;15.60;99.90;;;;;;4973857;28;20105;-76
2023/04/29 11:14:41;;;;;;;7.20;4.07;;;15.70;99.90;;;;;;4973894;28;20038;-77
2023/04/29 11:17:09;;;;;;;6.00;3.50;;;15.70;99.90;;;;;;4956831;28;20033;-76
2023/04/29 11:19:48;;;;;;;5.75;3.42;;;15.70;99.90;;;;;;4973777;28;20456;-75
2023/04/29 11:22:16;;;;;;;6.28;3.72;;;15.70;99.90;;;;;;4951469;28;20034;-77
2023/04/29 11:25:03;;;;;;;5.57;3.67;;;15.70;99.90;;;;;;4957015;28;20117;-86
2023/04/29 11:27:41;;;;;;;5.75;3.88;;;15.70;99.90;;;;;;4949718;29;20050;-80
2023/04/29 11:30:07;;;;;;;5.45;3.60;;;15.70;99.90;;;;;;4941551;28;20042;-77
2023/04/29 11:32:35;;;;;;;7.22;3.78;;;15.60;99.90;;;;;;4957611;28;20056;-78
2023/04/29 11:35:15;;;;;;;5.50;3.30;;;15.60;99.90;;;;;;4955679;28;20346;-77
2023/04/29 11:37:43;;;;;;;7.57;3.90;;;15.70;99.90;;;;;;4956158;28;20026;-78
2023/04/29 11:40:11;;;;;;;5.60;3.60;;;15.70;99.90;;;;;;4954890;28;20034;-73
2023/04/29 11:42:48;;;;;;;8.05;4.38;;;15.70;99.90;;;;;;4956193;28;20117;-75
2023/04/29 11:45:16;;;;;;;7.30;3.97;;;15.60;99.90;;;;;;4957132;28;20472;-75
2023/04/29 11:47:46;;;;;;;5.90;3.70;;;15.60;99.90;;;;;;4960434;28;20445;-78
2023/04/29 11:50:15;;;;;;;6.78;4.40;;;15.70;99.90;;;;;;4952667;29;20031;-75
2023/04/29 11:52:41;;;;;;;6.80;3.85;;;15.70;99.90;;;;;;4969288;28;20031;-77
2023/04/29 11:55:11;;;;;;;5.97;3.67;;;15.80;99.90;;;;;;4977275;28;20118;-76
2023/04/29 11:57:38;;;;;;;5.57;3.80;;;16.00;99.90;;;;;;4960441;28;20033;-76
2023/04/29 12:00:04;;;;;;;6.10;3.65;;;16.20;99.90;;;;;;4960185;28;20047;-77
2023/04/29 12:02:30;;;;;;;5.90;3.85;;;16.30;99.90;;;;;;4960755;28;20034;-76
2023/04/29 12:04:56;;;;;;;6.82;3.95;;;16.40;99.90;;;;;;4959375;28;20042;-76
2023/04/29 12:07:23;;;;;;;6.50;3.72;;;16.50;99.90;;;;;;4953789;28;20031;-75
2023/04/29 12:09:49;;;;;;;7.50;3.47;;;16.60;99.90;;;;;;4958482;28;20029;-75
2023/04/29 12:12:15;;;;;;;6.90;3.42;;;16.70;99.90;;;;;;4959392;28;20027;-75
2023/04/29 12:14:41;;;;;;;6.20;3.65;;;16.80;99.90;;;;;;4956091;28;20035;-76
2023/04/29 12:17:08;;;;;;;6.57;3.25;;;16.60;99.90;;;;;;4976280;28;20062;-75
2023/04/29 12:19:37;;;;;;;5.72;3.10;;;16.50;99.90;;;;;;4956771;28;20089;-77
2023/04/29 12:22:04;;;;;;;7.60;3.72;;;16.50;99.90;;;;;;4957695;29;20452;-76
2023/04/29 12:24:36;;;;;;;5.72;3.35;;;16.60;99.90;;;;;;4940836;29;20031;-78
2023/04/29 12:27:03;;;;;;;5.55;3.42;;;16.60;99.90;;;;;;4945590;28;20027;-76
2023/04/29 12:29:31;;;;;;;6.50;3.50;;;16.50;99.90;;;;;;4959793;28;20023;-77
2023/04/29 12:31:57;;;;;;;6.75;3.53;;;16.50;99.90;;;;;;4959785;28;20062;-76
2023/04/29 12:34:30;;;;;;;7.78;3.70;;;16.70;99.90;;;;;;4959918;28;20042;-77
2023/04/29 12:36:59;;;;;;;8.45;3.40;;;16.70;99.90;;;;;;4968014;28;20509;-76
2023/04/29 12:39:29;;;;;;;6.82;3.40;;;16.70;99.90;;;;;;4976040;28;20472;-78
2023/04/29 12:41:59;;;;;;;6.05;3.40;;;16.80;99.90;;;;;;4958836;28;20030;-77
2023/04/29 12:44:44;;;;;;;5.28;3.25;;;16.80;99.90;;;;;;4958808;28;20030;-77
2023/04/29 12:47:12;;;;;;;6.43;3.78;;;16.80;99.90;;;;;;4952938;28;20026;-76
2023/04/29 12:49:49;;;;;;;6.53;4.10;;;16.90;99.90;;;;;;4959902;28;20357;-77